sensor_id;sensor_type;location;lat;lon;timestamp;temperature;humidity
26691;DHT22;14307;51.718;8.938;2023-02-01T00:01:06;3.70;99.90
26691;DHT22;14307;51.718;8.938;2023-02-01T00:03:33;3.70;99.90
26691;DHT22;14307;51.718;8.938;2023-02-01T00:06:01;3.70;99.90
26691;DHT22;14307;51.718;8.938;2023-02-01T00:08:27;3.60;99.90
26691;DHT22;14307;51.718;8.938;2023-02-01T00:11:02;3.60;99.90
26691;DHT22;14307;51.718;8.938;2023-02-01T00:13:34;3.70;99.90
26691;DHT22;14307;51.718;8.938;2023-02-01T00:16:05;3.70;99.90
26691;DHT22;14307;51.718;8.938;2023-02-01T00:18:32;3.70;99.90
26691;DHT22;14307;51.718;8.938;2023-02-01T00:20:59;3.70;99.90
26691;DHT22;14307;51.718;8.938;2023-02-01T00:23:26;3.80;99.90
26691;DHT22;14307;51.718;8.938;2023-02-01T00:25:53;3.80;99.90
26691;DHT22;14307;51.718;8.938;2023-02-01T00:28:20;3.80;99.90
26691;DHT22;14307;51.718;8.938;2023-02-01T00:30:46;3.80;99.90
26691;DHT22;14307;51.718;8.938;2023-02-01T00:33:13;3.80;99.90
26691;DHT22;14307;51.718;8.938;2023-02-01T00:35:40;3.90;99.90
26691;DHT22;14307;51.718;8.938;2023-02-01T00:38:06;3.80;99.90
26691;DHT22;14307;51.718;8.938;2023-02-01T00:40:33;3.90;99.90
26691;DHT22;14307;51.718;8.938;2023-02-01T00:43:00;3.80;99.90
26691;DHT22;14307;51.718;8.938;2023-02-01T00:45:26;3.80;99.90
26691;DHT22;14307;51.718;8.938;2023-02-01T00:47:53;3.80;99.90
26691;DHT22;14307;51.718;8.938;2023-02-01T00:50:19;3.80;99.90
26691;DHT22;14307;51.718;8.938;2023-02-01T00:52:47;3.80;99.90
26691;DHT22;14307;51.718;8.938;2023-02-01T00:55:14;3.80;99.90
26691;DHT22;14307;51.718;8.938;2023-02-01T00:57:40;3.80;99.90
26691;DHT22;14307;51.718;8.938;2023-02-01T01:00:07;3.80;99.90
26691;DHT22;14307;51.718;8.938;2023-02-01T01:02:34;3.80;99.90
26691;DHT22;14307;51.718;8.938;2023-02-01T01:05:02;3.80;99.90
26691;DHT22;14307;51.718;8.938;2023-02-01T01:07:29;3.80;99.90
26691;DHT22;14307;51.718;8.938;2023-02-01T01:09:55;3.80;99.90
26691;DHT22;14307;51.718;8.938;2023-02-01T01:12:22;3.80;99.90
26691;DHT22;14307;51.718;8.938;2023-02-01T01:14:49;3.80;99.90
26691;DHT22;14307;51.718;8.938;2023-02-01T01:17:16;3.80;99.90
26691;DHT22;14307;51.718;8.938;2023-02-01T01:19:43;3.70;99.90
26691;DHT22;14307;51.718;8.938;2023-02-01T01:22:09;3.80;99.90
26691;DHT22;14307;51.718;8.938;2023-02-01T01:24:36;3.80;99.90
26691;DHT22;14307;51.718;8.938;2023-02-01T01:27:03;3.80;99.90
26691;DHT22;14307;51.718;8.938;2023-02-01T01:29:29;3.90;99.90
26691;DHT22;14307;51.718;8.938;2023-02-01T01:31:56;3.90;99.90
26691;DHT22;14307;51.718;8.938;2023-02-01T01:34:23;3.90;99.90
26691;DHT22;14307;51.718;8.938;2023-02-01T01:36:49;3.90;99.90
26691;DHT22;14307;51.718;8.938;2023-02-01T01:39:16;3.90;99.90
26691;DHT22;14307;51.718;8.938;2023-02-01T01:41:43;3.90;99.90
26691;DHT22;14307;51.718;8.938;2023-02-01T01:47:21;3.90;99.90
26691;DHT22;14307;51.718;8.938;2023-02-01T01:49:49;3.90;99.90
26691;DHT22;14307;51.718;8.938;2023-02-01T01:52:16;3.90;99.90
26691;DHT22;14307;51.718;8.938;2023-02-01T01:54:50;4.00;99.90
26691;DHT22;14307;51.718;8.938;2023-02-01T01:57:24;4.00;99.90
26691;DHT22;14307;51.718;8.938;2023-02-01T02:00:03;4.00;99.90
26691;DHT22;14307;51.718;8.938;2023-02-01T02:02:40;4.00;99.90
26691;DHT22;14307;51.718;8.938;2023-02-01T02:05:09;4.00;99.90
26691;DHT22;14307;51.718;8.938;2023-02-01T02:07:40;4.00;99.90
26691;DHT22;14307;51.718;8.938;2023-02-01T02:10:11;4.10;99.90
26691;DHT22;14307;51.718;8.938;2023-02-01T02:12:39;4.10;99.90
26691;DHT22;14307;51.718;8.938;2023-02-01T02:15:08;4.00;99.90
26691;DHT22;14307;51.718;8.938;2023-02-01T02:18:00;4.10;99.90
26691;DHT22;14307;51.718;8.938;2023-02-01T02:26:29;4.10;99.90
26691;DHT22;14307;51.718;8.938;2023-02-01T02:29:18;4.10;99.90
26691;DHT22;14307;51.718;8.938;2023-02-01T02:41:13;4.10;99.90
26691;DHT22;14307;51.718;8.938;2023-02-01T02:44:37;4.10;99.90
26691;DHT22;14307;51.718;8.938;2023-02-01T02:47:48;4.20;99.90
26691;DHT22;14307;51.718;8.938;2023-02-01T02:50:36;4.20;99.90
26691;DHT22;14307;51.718;8.938;2023-02-01T02:53:46;4.20;99.90
26691;DHT22;14307;51.718;8.938;2023-02-01T02:56:35;4.20;99.90
26691;DHT22;14307;51.718;8.938;2023-02-01T02:59:21;4.20;99.90
26691;DHT22;14307;51.718;8.938;2023-02-01T03:02:11;4.20;99.90
26691;DHT22;14307;51.718;8.938;2023-02-01T03:04:58;4.20;99.90
26691;DHT22;14307;51.718;8.938;2023-02-01T03:13:08;4.20;99.90
26691;DHT22;14307;51.718;8.938;2023-02-01T03:15:44;4.20;99.90
26691;DHT22;14307;51.718;8.938;2023-02-01T03:18:16;4.20;99.90
26691;DHT22;14307;51.718;8.938;2023-02-01T03:20:47;4.20;99.90
26691;DHT22;14307;51.718;8.938;2023-02-01T03:23:20;4.20;99.90
26691;DHT22;14307;51.718;8.938;2023-02-01T03:25:48;4.20;99.90
26691;DHT22;14307;51.718;8.938;2023-02-01T03:28:18;4.20;99.90
26691;DHT22;14307;51.718;8.938;2023-02-01T03:30:48;4.20;99.90
26691;DHT22;14307;51.718;8.938;2023-02-01T03:33:19;4.30;99.90
26691;DHT22;14307;51.718;8.938;2023-02-01T03:38:38;4.30;99.90
26691;DHT22;14307;51.718;8.938;2023-02-01T03:44:04;4.30;99.90
26691;DHT22;14307;51.718;8.938;2023-02-01T03:46:41;4.20;99.90
26691;DHT22;14307;51.718;8.938;2023-02-01T03:49:21;4.30;99.90
26691;DHT22;14307;51.718;8.938;2023-02-01T03:51:50;4.20;99.90
26691;DHT22;14307;51.718;8.938;2023-02-01T03:54:18;4.30;99.90
26691;DHT22;14307;51.718;8.938;2023-02-01T03:56:46;4.20;99.90
26691;DHT22;14307;51.718;8.938;2023-02-01T03:59:14;4.20;99.90
26691;DHT22;14307;51.718;8.938;2023-02-01T04:01:41;4.20;99.90
26691;DHT22;14307;51.718;8.938;2023-02-01T04:04:09;4.20;99.90
26691;DHT22;14307;51.718;8.938;2023-02-01T04:06:37;4.20;99.90
26691;DHT22;14307;51.718;8.938;2023-02-01T04:09:04;4.30;99.90
26691;DHT22;14307;51.718;8.938;2023-02-01T04:11:31;4.30;99.90
26691;DHT22;14307;51.718;8.938;2023-02-01T04:13:57;4.20;99.90
26691;DHT22;14307;51.718;8.938;2023-02-01T04:16:24;4.20;99.90
26691;DHT22;14307;51.718;8.938;2023-02-01T04:18:51;4.20;99.90
26691;DHT22;14307;51.718;8.938;2023-02-01T04:21:16;4.30;99.90
26691;DHT22;14307;51.718;8.938;2023-02-01T04:23:43;4.20;99.90
26691;DHT22;14307;51.718;8.938;2023-02-01T04:26:10;4.30;99.90
26691;DHT22;14307;51.718;8.938;2023-02-01T04:28:37;4.30;99.90
26691;DHT22;14307;51.718;8.938;2023-02-01T04:31:04;4.30;99.90
26691;DHT22;14307;51.718;8.938;2023-02-01T04:33:31;4.30;99.90
26691;DHT22;14307;51.718;8.938;2023-02-01T04:35:58;4.30;99.90
26691;DHT22;14307;51.718;8.938;2023-02-01T04:38:25;4.30;99.90
26691;DHT22;14307;51.718;8.938;2023-02-01T04:40:53;4.20;99.90
26691;DHT22;14307;51.718;8.938;2023-02-01T04:43:19;4.20;99.90
26691;DHT22;14307;51.718;8.938;2023-02-01T04:45:48;4.30;99.90
26691;DHT22;14307;51.718;8.938;2023-02-01T04:48:16;4.30;99.90
26691;DHT22;14307;51.718;8.938;2023-02-01T04:50:44;4.30;99.90
26691;DHT22;14307;51.718;8.938;2023-02-01T04:53:17;4.30;99.90
26691;DHT22;14307;51.718;8.938;2023-02-01T04:55:44;4.20;99.90
26691;DHT22;14307;51.718;8.938;2023-02-01T04:58:11;4.30;99.90
26691;DHT22;14307;51.718;8.938;2023-02-01T05:00:38;4.30;99.90
26691;DHT22;14307;51.718;8.938;2023-02-01T05:03:05;4.20;99.90
26691;DHT22;14307;51.718;8.938;2023-02-01T05:05:31;4.20;99.90
26691;DHT22;14307;51.718;8.938;2023-02-01T05:07:58;4.20;99.90
26691;DHT22;14307;51.718;8.938;2023-02-01T05:10:25;4.20;99.90
26691;DHT22;14307;51.718;8.938;2023-02-01T05:12:51;4.10;99.90
26691;DHT22;14307;51.718;8.938;2023-02-01T05:15:37;4.10;99.90
26691;DHT22;14307;51.718;8.938;2023-02-01T05:18:03;4.10;99.90
26691;DHT22;14307;51.718;8.938;2023-02-01T05:20:30;4.10;99.90
26691;DHT22;14307;51.718;8.938;2023-02-01T05:22:57;4.10;99.90
26691;DHT22;14307;51.718;8.938;2023-02-01T05:25:24;4.10;99.90
26691;DHT22;14307;51.718;8.938;2023-02-01T05:27:50;4.10;99.90
26691;DHT22;14307;51.718;8.938;2023-02-01T05:30:17;4.00;99.90
26691;DHT22;14307;51.718;8.938;2023-02-01T05:32:44;4.00;99.90
26691;DHT22;14307;51.718;8.938;2023-02-01T05:35:11;4.00;99.90
26691;DHT22;14307;51.718;8.938;2023-02-01T05:37:38;4.00;99.90
26691;DHT22;14307;51.718;8.938;2023-02-01T05:40:05;4.00;99.90
26691;DHT22;14307;51.718;8.938;2023-02-01T05:42:32;4.00;99.90
26691;DHT22;14307;51.718;8.938;2023-02-01T05:44:59;4.00;99.90
26691;DHT22;14307;51.718;8.938;2023-02-01T05:47:25;3.90;99.90
26691;DHT22;14307;51.718;8.938;2023-02-01T05:49:52;3.90;99.90
26691;DHT22;14307;51.718;8.938;2023-02-01T05:52:19;3.90;99.90
26691;DHT22;14307;51.718;8.938;2023-02-01T05:54:47;3.90;99.90
26691;DHT22;14307;51.718;8.938;2023-02-01T05:57:16;3.90;99.90
26691;DHT22;14307;51.718;8.938;2023-02-01T05:59:43;3.80;99.90
26691;DHT22;14307;51.718;8.938;2023-02-01T06:02:12;3.80;99.90
26691;DHT22;14307;51.718;8.938;2023-02-01T06:04:39;3.80;99.90
26691;DHT22;14307;51.718;8.938;2023-02-01T06:07:07;3.80;99.90
26691;DHT22;14307;51.718;8.938;2023-02-01T06:09:35;3.90;99.90
26691;DHT22;14307;51.718;8.938;2023-02-01T06:12:03;3.90;99.90
26691;DHT22;14307;51.718;8.938;2023-02-01T06:14:29;3.90;99.90
26691;DHT22;14307;51.718;8.938;2023-02-01T06:16:56;3.90;99.90
26691;DHT22;14307;51.718;8.938;2023-02-01T06:19:23;3.90;99.90
26691;DHT22;14307;51.718;8.938;2023-02-01T06:21:50;3.90;99.90
26691;DHT22;14307;51.718;8.938;2023-02-01T06:24:17;3.90;99.90
26691;DHT22;14307;51.718;8.938;2023-02-01T06:26:44;4.00;99.90
26691;DHT22;14307;51.718;8.938;2023-02-01T06:29:11;4.00;99.90
26691;DHT22;14307;51.718;8.938;2023-02-01T06:31:38;4.00;99.90
26691;DHT22;14307;51.718;8.938;2023-02-01T06:34:04;4.10;99.90
26691;DHT22;14307;51.718;8.938;2023-02-01T06:36:31;4.10;99.90
26691;DHT22;14307;51.718;8.938;2023-02-01T06:38:58;4.10;99.90
26691;DHT22;14307;51.718;8.938;2023-02-01T06:41:26;4.10;99.90
26691;DHT22;14307;51.718;8.938;2023-02-01T06:43:55;4.10;99.90
26691;DHT22;14307;51.718;8.938;2023-02-01T06:46:22;4.10;99.90
26691;DHT22;14307;51.718;8.938;2023-02-01T06:48:49;4.10;99.90
26691;DHT22;14307;51.718;8.938;2023-02-01T06:51:25;4.20;99.90
26691;DHT22;14307;51.718;8.938;2023-02-01T06:53:52;4.20;99.90
26691;DHT22;14307;51.718;8.938;2023-02-01T06:56:19;4.20;99.90
26691;DHT22;14307;51.718;8.938;2023-02-01T06:58:47;4.20;99.90
26691;DHT22;14307;51.718;8.938;2023-02-01T07:01:14;4.20;99.90
26691;DHT22;14307;51.718;8.938;2023-02-01T07:03:41;4.30;99.90
26691;DHT22;14307;51.718;8.938;2023-02-01T07:06:09;4.30;99.90
26691;DHT22;14307;51.718;8.938;2023-02-01T07:08:37;4.30;99.90
26691;DHT22;14307;51.718;8.938;2023-02-01T07:11:06;4.30;99.90
26691;DHT22;14307;51.718;8.938;2023-02-01T07:13:33;4.30;99.90
26691;DHT22;14307;51.718;8.938;2023-02-01T07:16:01;4.30;99.90
26691;DHT22;14307;51.718;8.938;2023-02-01T07:18:30;4.30;99.90
26691;DHT22;14307;51.718;8.938;2023-02-01T07:20:57;4.30;99.90
26691;DHT22;14307;51.718;8.938;2023-02-01T07:23:25;4.30;99.90
26691;DHT22;14307;51.718;8.938;2023-02-01T07:25:57;4.30;99.90
26691;DHT22;14307;51.718;8.938;2023-02-01T07:28:25;4.40;99.90
26691;DHT22;14307;51.718;8.938;2023-02-01T07:30:52;4.30;99.90
26691;DHT22;14307;51.718;8.938;2023-02-01T07:33:20;4.30;99.90
26691;DHT22;14307;51.718;8.938;2023-02-01T07:35:49;4.30;99.90
26691;DHT22;14307;51.718;8.938;2023-02-01T07:38:16;4.30;99.90
26691;DHT22;14307;51.718;8.938;2023-02-01T07:40:43;4.30;99.90
26691;DHT22;14307;51.718;8.938;2023-02-01T07:43:10;4.30;99.90
26691;DHT22;14307;51.718;8.938;2023-02-01T07:45:37;4.40;99.90
26691;DHT22;14307;51.718;8.938;2023-02-01T07:48:04;4.40;99.90
26691;DHT22;14307;51.718;8.938;2023-02-01T07:50:31;4.40;99.90
26691;DHT22;14307;51.718;8.938;2023-02-01T07:53:01;4.40;99.90
26691;DHT22;14307;51.718;8.938;2023-02-01T07:55:28;4.40;99.90
26691;DHT22;14307;51.718;8.938;2023-02-01T07:57:58;4.30;99.90
26691;DHT22;14307;51.718;8.938;2023-02-01T08:00:26;4.30;99.90
26691;DHT22;14307;51.718;8.938;2023-02-01T08:03:12;4.30;99.90
26691;DHT22;14307;51.718;8.938;2023-02-01T08:05:38;4.30;99.90
26691;DHT22;14307;51.718;8.938;2023-02-01T08:08:06;4.40;99.90
26691;DHT22;14307;51.718;8.938;2023-02-01T08:10:33;4.40;99.90
26691;DHT22;14307;51.718;8.938;2023-02-01T08:13:02;4.40;99.90
26691;DHT22;14307;51.718;8.938;2023-02-01T08:15:29;4.40;99.90
26691;DHT22;14307;51.718;8.938;2023-02-01T08:17:56;4.40;99.90
26691;DHT22;14307;51.718;8.938;2023-02-01T08:20:23;4.40;99.90
26691;DHT22;14307;51.718;8.938;2023-02-01T08:22:52;4.50;99.90
26691;DHT22;14307;51.718;8.938;2023-02-01T08:25:20;4.50;99.90
26691;DHT22;14307;51.718;8.938;2023-02-01T08:27:47;4.50;99.90
26691;DHT22;14307;51.718;8.938;2023-02-01T08:30:14;4.40;99.90
26691;DHT22;14307;51.718;8.938;2023-02-01T08:32:41;4.40;99.90
26691;DHT22;14307;51.718;8.938;2023-02-01T08:35:08;4.40;99.90
26691;DHT22;14307;51.718;8.938;2023-02-01T08:37:35;4.40;99.90
26691;DHT22;14307;51.718;8.938;2023-02-01T08:40:04;4.40;99.90
26691;DHT22;14307;51.718;8.938;2023-02-01T08:42:31;4.40;99.90
26691;DHT22;14307;51.718;8.938;2023-02-01T08:45:18;4.40;99.90
26691;DHT22;14307;51.718;8.938;2023-02-01T08:47:47;4.40;99.90
26691;DHT22;14307;51.718;8.938;2023-02-01T08:50:15;4.40;99.90
26691;DHT22;14307;51.718;8.938;2023-02-01T08:52:41;4.40;99.90
26691;DHT22;14307;51.718;8.938;2023-02-01T08:55:09;4.40;99.90
26691;DHT22;14307;51.718;8.938;2023-02-01T08:57:39;4.40;99.90
26691;DHT22;14307;51.718;8.938;2023-02-01T09:00:09;4.40;99.90
26691;DHT22;14307;51.718;8.938;2023-02-01T09:02:37;4.40;99.90
26691;DHT22;14307;51.718;8.938;2023-02-01T09:05:04;4.30;99.90
26691;DHT22;14307;51.718;8.938;2023-02-01T09:07:32;4.30;99.90
26691;DHT22;14307;51.718;8.938;2023-02-01T09:09:59;4.30;99.90
26691;DHT22;14307;51.718;8.938;2023-02-01T09:12:29;4.30;99.90
26691;DHT22;14307;51.718;8.938;2023-02-01T09:14:57;4.30;99.90
26691;DHT22;14307;51.718;8.938;2023-02-01T09:17:27;4.40;99.90
26691;DHT22;14307;51.718;8.938;2023-02-01T09:19:55;4.30;99.90
26691;DHT22;14307;51.718;8.938;2023-02-01T09:22:21;4.40;99.90
26691;DHT22;14307;51.718;8.938;2023-02-01T09:24:48;4.40;99.90
26691;DHT22;14307;51.718;8.938;2023-02-01T09:27:15;4.40;99.90
26691;DHT22;14307;51.718;8.938;2023-02-01T09:29:42;4.40;99.90
26691;DHT22;14307;51.718;8.938;2023-02-01T09:32:09;4.50;99.90
26691;DHT22;14307;51.718;8.938;2023-02-01T09:34:36;4.50;99.90
26691;DHT22;14307;51.718;8.938;2023-02-01T09:37:03;4.50;99.90
26691;DHT22;14307;51.718;8.938;2023-02-01T09:39:30;4.60;99.90
26691;DHT22;14307;51.718;8.938;2023-02-01T09:47:40;4.50;99.90
26691;DHT22;14307;51.718;8.938;2023-02-01T09:50:11;4.60;99.90
26691;DHT22;14307;51.718;8.938;2023-02-01T09:52:48;4.60;99.90
26691;DHT22;14307;51.718;8.938;2023-02-01T09:55:30;4.60;99.90
26691;DHT22;14307;51.718;8.938;2023-02-01T09:58:04;4.60;99.90
26691;DHT22;14307;51.718;8.938;2023-02-01T10:00:39;4.60;99.90
26691;DHT22;14307;51.718;8.938;2023-02-01T10:03:13;4.60;99.90
26691;DHT22;14307;51.718;8.938;2023-02-01T10:08:19;4.50;99.90
26691;DHT22;14307;51.718;8.938;2023-02-01T10:10:56;4.60;99.90
26691;DHT22;14307;51.718;8.938;2023-02-01T10:13:27;4.50;99.90
26691;DHT22;14307;51.718;8.938;2023-02-01T10:21:58;4.60;99.90
26691;DHT22;14307;51.718;8.938;2023-02-01T10:24:53;4.60;99.90
26691;DHT22;14307;51.718;8.938;2023-02-01T10:27:34;4.50;99.90
26691;DHT22;14307;51.718;8.938;2023-02-01T10:30:39;4.60;99.90
26691;DHT22;14307;51.718;8.938;2023-02-01T10:33:21;4.50;99.90
26691;DHT22;14307;51.718;8.938;2023-02-01T10:36:16;4.60;99.90
26691;DHT22;14307;51.718;8.938;2023-02-01T10:38:40;4.60;99.90
26691;DHT22;14307;51.718;8.938;2023-02-01T10:41:19;4.60;99.90
26691;DHT22;14307;51.718;8.938;2023-02-01T10:43:54;4.60;99.90
26691;DHT22;14307;51.718;8.938;2023-02-01T10:46:25;4.60;99.90
26691;DHT22;14307;51.718;8.938;2023-02-01T10:48:54;4.70;99.90
26691;DHT22;14307;51.718;8.938;2023-02-01T10:51:35;4.70;99.90
26691;DHT22;14307;51.718;8.938;2023-02-01T10:54:18;4.70;99.90
26691;DHT22;14307;51.718;8.938;2023-02-01T10:56:48;4.80;99.90
26691;DHT22;14307;51.718;8.938;2023-02-01T10:59:24;4.70;99.90
26691;DHT22;14307;51.718;8.938;2023-02-01T11:01:59;4.70;99.90
26691;DHT22;14307;51.718;8.938;2023-02-01T11:04:29;4.80;99.90
26691;DHT22;14307;51.718;8.938;2023-02-01T11:07:17;4.70;99.90
26691;DHT22;14307;51.718;8.938;2023-02-01T11:09:51;4.70;99.90
26691;DHT22;14307;51.718;8.938;2023-02-01T11:12:32;4.80;99.90
26691;DHT22;14307;51.718;8.938;2023-02-01T11:17:47;4.80;99.90
26691;DHT22;14307;51.718;8.938;2023-02-01T11:20:17;4.70;99.90
26691;DHT22;14307;51.718;8.938;2023-02-01T11:22:55;4.80;99.90
26691;DHT22;14307;51.718;8.938;2023-02-01T11:25:23;4.80;99.90
26691;DHT22;14307;51.718;8.938;2023-02-01T11:27:54;4.80;99.90
26691;DHT22;14307;51.718;8.938;2023-02-01T11:30:33;4.80;99.90
26691;DHT22;14307;51.718;8.938;2023-02-01T11:33:02;4.80;99.90
26691;DHT22;14307;51.718;8.938;2023-02-01T11:35:32;4.80;99.90
26691;DHT22;14307;51.718;8.938;2023-02-01T11:38:09;4.80;99.90
26691;DHT22;14307;51.718;8.938;2023-02-01T11:40:38;4.80;99.90
26691;DHT22;14307;51.718;8.938;2023-02-01T11:43:24;4.80;99.90
26691;DHT22;14307;51.718;8.938;2023-02-01T11:45:59;4.80;99.90
26691;DHT22;14307;51.718;8.938;2023-02-01T11:48:27;4.80;99.90
26691;DHT22;14307;51.718;8.938;2023-02-01T11:51:26;4.80;99.90
26691;DHT22;14307;51.718;8.938;2023-02-01T11:54:20;4.80;99.90
26691;DHT22;14307;51.718;8.938;2023-02-01T12:00:26;4.90;99.90
26691;DHT22;14307;51.718;8.938;2023-02-01T12:08:48;4.90;99.90
26691;DHT22;14307;51.718;8.938;2023-02-01T12:13:55;4.80;99.90
26691;DHT22;14307;51.718;8.938;2023-02-01T12:16:42;4.80;99.90
26691;DHT22;14307;51.718;8.938;2023-02-01T12:24:56;4.80;99.90
26691;DHT22;14307;51.718;8.938;2023-02-01T12:30:56;4.70;99.90
26691;DHT22;14307;51.718;8.938;2023-02-01T12:36:16;4.50;99.90
26691;DHT22;14307;51.718;8.938;2023-02-01T12:44:52;4.40;99.90
26691;DHT22;14307;51.718;8.938;2023-02-01T12:47:32;4.50;99.90
26691;DHT22;14307;51.718;8.938;2023-02-01T12:50:17;4.40;99.90
26691;DHT22;14307;51.718;8.938;2023-02-01T12:52:53;4.30;99.90
26691;DHT22;14307;51.718;8.938;2023-02-01T12:55:33;4.40;99.90
26691;DHT22;14307;51.718;8.938;2023-02-01T12:58:18;4.30;99.90
26691;DHT22;14307;51.718;8.938;2023-02-01T13:01:04;4.30;99.90
26691;DHT22;14307;51.718;8.938;2023-02-01T13:06:31;4.20;99.90
26691;DHT22;14307;51.718;8.938;2023-02-01T13:11:44;4.20;99.90
26691;DHT22;14307;51.718;8.938;2023-02-01T13:16:52;4.20;99.90
26691;DHT22;14307;51.718;8.938;2023-02-01T13:22:20;4.20;99.90
26691;DHT22;14307;51.718;8.938;2023-02-01T13:24:58;4.20;99.90
26691;DHT22;14307;51.718;8.938;2023-02-01T13:27:28;4.10;99.90
26691;DHT22;14307;51.718;8.938;2023-02-01T13:29:59;4.10;99.90
26691;DHT22;14307;51.718;8.938;2023-02-01T13:35:55;4.10;99.90
26691;DHT22;14307;51.718;8.938;2023-02-01T13:38:39;4.00;99.90
26691;DHT22;14307;51.718;8.938;2023-02-01T13:41:24;4.00;99.90
26691;DHT22;14307;51.718;8.938;2023-02-01T13:43:58;4.10;99.90
26691;DHT22;14307;51.718;8.938;2023-02-01T13:46:26;4.10;99.90
26691;DHT22;14307;51.718;8.938;2023-02-01T13:48:56;4.10;99.90
26691;DHT22;14307;51.718;8.938;2023-02-01T13:51:43;4.10;99.90
26691;DHT22;14307;51.718;8.938;2023-02-01T13:54:33;4.10;99.90
26691;DHT22;14307;51.718;8.938;2023-02-01T13:57:02;4.10;99.90
26691;DHT22;14307;51.718;8.938;2023-02-01T14:13:32;4.30;99.90
26691;DHT22;14307;51.718;8.938;2023-02-01T14:21:49;4.30;99.90
26691;DHT22;14307;51.718;8.938;2023-02-01T14:24:24;4.30;99.90
26691;DHT22;14307;51.718;8.938;2023-02-01T14:26:53;4.30;99.90
26691;DHT22;14307;51.718;8.938;2023-02-01T14:29:36;4.30;99.90
26691;DHT22;14307;51.718;8.938;2023-02-01T14:32:20;4.40;99.90
26691;DHT22;14307;51.718;8.938;2023-02-01T14:42:39;4.50;99.90
26691;DHT22;14307;51.718;8.938;2023-02-01T14:50:18;4.50;99.90
26691;DHT22;14307;51.718;8.938;2023-02-01T14:55:43;4.60;99.90
26691;DHT22;14307;51.718;8.938;2023-02-01T15:03:59;4.70;99.90
26691;DHT22;14307;51.718;8.938;2023-02-01T15:06:42;4.70;99.90
26691;DHT22;14307;51.718;8.938;2023-02-01T15:09:33;4.80;99.90
26691;DHT22;14307;51.718;8.938;2023-02-01T15:17:26;4.80;99.90
26691;DHT22;14307;51.718;8.938;2023-02-01T15:20:15;4.80;99.90
26691;DHT22;14307;51.718;8.938;2023-02-01T15:22:57;4.80;99.90
26691;DHT22;14307;51.718;8.938;2023-02-01T15:25:27;4.80;99.90
26691;DHT22;14307;51.718;8.938;2023-02-01T15:27:55;4.70;99.90
26691;DHT22;14307;51.718;8.938;2023-02-01T15:30:30;4.60;99.90
26691;DHT22;14307;51.718;8.938;2023-02-01T15:33:27;3.80;99.90
26691;DHT22;14307;51.718;8.938;2023-02-01T15:43:38;3.30;99.90
26691;DHT22;14307;51.718;8.938;2023-02-01T15:48:56;3.30;99.90
26691;DHT22;14307;51.718;8.938;2023-02-01T15:51:25;3.40;99.90
26691;DHT22;14307;51.718;8.938;2023-02-01T15:54:01;3.40;99.90
26691;DHT22;14307;51.718;8.938;2023-02-01T15:56:34;3.40;99.90
26691;DHT22;14307;51.718;8.938;2023-02-01T15:59:04;3.40;99.90
26691;DHT22;14307;51.718;8.938;2023-02-01T16:01:37;3.40;99.90
26691;DHT22;14307;51.718;8.938;2023-02-01T16:04:18;3.50;99.90
26691;DHT22;14307;51.718;8.938;2023-02-01T16:06:51;3.50;99.90
26691;DHT22;14307;51.718;8.938;2023-02-01T16:09:23;3.50;99.90
26691;DHT22;14307;51.718;8.938;2023-02-01T16:14:23;3.50;99.90
26691;DHT22;14307;51.718;8.938;2023-02-01T16:16:50;3.60;99.90
26691;DHT22;14307;51.718;8.938;2023-02-01T16:19:17;3.50;99.90
26691;DHT22;14307;51.718;8.938;2023-02-01T16:21:44;3.50;99.90
26691;DHT22;14307;51.718;8.938;2023-02-01T16:24:11;3.40;99.90
26691;DHT22;14307;51.718;8.938;2023-02-01T16:26:38;3.40;99.90
26691;DHT22;14307;51.718;8.938;2023-02-01T16:29:05;3.30;99.90
26691;DHT22;14307;51.718;8.938;2023-02-01T16:31:36;3.30;99.90
26691;DHT22;14307;51.718;8.938;2023-02-01T16:34:03;3.50;99.90
26691;DHT22;14307;51.718;8.938;2023-02-01T16:36:32;3.80;99.90
26691;DHT22;14307;51.718;8.938;2023-02-01T16:38:59;3.90;99.90
26691;DHT22;14307;51.718;8.938;2023-02-01T16:41:26;4.00;99.90
26691;DHT22;14307;51.718;8.938;2023-02-01T16:43:54;4.10;99.90
26691;DHT22;14307;51.718;8.938;2023-02-01T16:46:24;4.10;99.90
26691;DHT22;14307;51.718;8.938;2023-02-01T16:48:55;4.10;99.90
26691;DHT22;14307;51.718;8.938;2023-02-01T16:51:24;4.10;99.90
26691;DHT22;14307;51.718;8.938;2023-02-01T16:53:51;4.10;99.90
26691;DHT22;14307;51.718;8.938;2023-02-01T16:56:21;4.10;99.90
26691;DHT22;14307;51.718;8.938;2023-02-01T16:58:49;4.10;99.90
26691;DHT22;14307;51.718;8.938;2023-02-01T17:01:18;4.10;99.90
26691;DHT22;14307;51.718;8.938;2023-02-01T17:03:45;4.10;99.90
26691;DHT22;14307;51.718;8.938;2023-02-01T17:06:18;4.00;99.90
26691;DHT22;14307;51.718;8.938;2023-02-01T17:08:50;4.00;99.90
26691;DHT22;14307;51.718;8.938;2023-02-01T17:11:17;4.00;99.90
26691;DHT22;14307;51.718;8.938;2023-02-01T17:13:44;4.00;99.90
26691;DHT22;14307;51.718;8.938;2023-02-01T17:18:40;4.00;99.90
26691;DHT22;14307;51.718;8.938;2023-02-01T17:21:09;4.00;99.90
26691;DHT22;14307;51.718;8.938;2023-02-01T17:23:36;4.00;99.90
26691;DHT22;14307;51.718;8.938;2023-02-01T17:26:03;4.00;99.90
26691;DHT22;14307;51.718;8.938;2023-02-01T17:28:30;4.00;99.90
26691;DHT22;14307;51.718;8.938;2023-02-01T17:30:57;4.00;99.90
26691;DHT22;14307;51.718;8.938;2023-02-01T17:33:35;4.00;99.90
26691;DHT22;14307;51.718;8.938;2023-02-01T17:36:04;4.10;99.90
26691;DHT22;14307;51.718;8.938;2023-02-01T17:38:32;4.10;99.90
26691;DHT22;14307;51.718;8.938;2023-02-01T17:41:00;4.10;99.90
26691;DHT22;14307;51.718;8.938;2023-02-01T17:43:27;4.10;99.90
26691;DHT22;14307;51.718;8.938;2023-02-01T17:46:15;4.10;99.90
26691;DHT22;14307;51.718;8.938;2023-02-01T17:48:41;4.10;99.90
26691;DHT22;14307;51.718;8.938;2023-02-01T17:51:27;4.10;99.90
26691;DHT22;14307;51.718;8.938;2023-02-01T17:53:55;4.00;99.90
26691;DHT22;14307;51.718;8.938;2023-02-01T17:56:23;4.00;99.90
26691;DHT22;14307;51.718;8.938;2023-02-01T17:58:51;4.00;99.90
26691;DHT22;14307;51.718;8.938;2023-02-01T18:01:20;4.00;99.90
26691;DHT22;14307;51.718;8.938;2023-02-01T18:03:47;4.00;99.90
26691;DHT22;14307;51.718;8.938;2023-02-01T18:06:20;3.90;99.90
26691;DHT22;14307;51.718;8.938;2023-02-01T18:08:47;3.80;99.90
26691;DHT22;14307;51.718;8.938;2023-02-01T18:11:22;3.80;99.90
26691;DHT22;14307;51.718;8.938;2023-02-01T18:13:51;3.80;99.90
26691;DHT22;14307;51.718;8.938;2023-02-01T18:16:32;3.80;99.90
26691;DHT22;14307;51.718;8.938;2023-02-01T18:18:59;3.80;99.90
26691;DHT22;14307;51.718;8.938;2023-02-01T18:21:35;3.80;99.90
26691;DHT22;14307;51.718;8.938;2023-02-01T18:24:02;3.80;99.90
26691;DHT22;14307;51.718;8.938;2023-02-01T18:26:29;3.90;99.90
26691;DHT22;14307;51.718;8.938;2023-02-01T18:28:56;3.90;99.90
26691;DHT22;14307;51.718;8.938;2023-02-01T18:31:26;3.90;99.90
26691;DHT22;14307;51.718;8.938;2023-02-01T18:33:56;4.00;99.90
26691;DHT22;14307;51.718;8.938;2023-02-01T18:36:23;3.90;99.90
26691;DHT22;14307;51.718;8.938;2023-02-01T18:38:50;3.90;99.90
26691;DHT22;14307;51.718;8.938;2023-02-01T18:41:19;3.80;99.90
26691;DHT22;14307;51.718;8.938;2023-02-01T18:43:48;3.80;99.90